Data for 01/02/2006

Time Sea-Level Adjusted Pressure Absolute Pressure Temperature Relative Humidity Dew Point   
(mb) (inHg) (mb) (inHg) (C) (F) (%) (C) (F)
00:05 1008 29.77 837 24.72 -0.6 30.9 57 -8.1 17.5
00:10 1007 29.74 837 24.72 -0.3 31.4 56 -8.1 17.4
00:15 1007 29.74 837 24.72 -0.4 31.3 56 -8 17.6
00:20 1007 29.74 837 24.72 -0 31.9 54 -8.1 17.3
00:25 1007 29.74 837 24.72 0.1 32.1 54 -8.1 17.4
00:30 1007 29.74 836 24.69 0 32.1 54 -8.2 17.2
00:35 1007 29.74 836 24.69 0.1 32.1 54 -8.1 17.5
00:40 1007 29.74 836 24.69 0 32 55 -8 17.6
00:45 1007 29.74 836 24.69 -0.1 31.8 56 -7.9 17.7
00:50 1007 29.74 836 24.69 -0.3 31.5 56 -8 17.7
00:55 1007 29.74 836 24.69 -0.3 31.4 56 -8 17.6
01:00 1007 29.74 836 24.69 -0.3 31.4 56 -8.1 17.5
01:05 1007 29.74 836 24.69 -0.3 31.4 56 -8.1 17.4
01:10 1007 29.74 836 24.69 -0.1 31.8 55 -8.1 17.4
01:15 1007 29.74 836 24.69 -0 31.9 55 -8.1 17.5
01:20 1007 29.74 836 24.69 0.1 32.2 54 -8.2 17.3
01:25 1007 29.74 836 24.69 0.3 32.5 53 -8.2 17.2
01:30 1007 29.74 836 24.69 0.4 32.7 52 -8.4 16.9
01:35 1007 29.74 836 24.69 0.5 33 52 -8.3 17.1
01:40 1007 29.74 836 24.69 0.6 33 53 -8 17.7
01:45 1007 29.74 836 24.69 0.4 32.7 53 -8.1 17.4
01:50 1007 29.74 836 24.69 0.4 32.8 53 -8.2 17.3
01:55 1006 29.71 836 24.69 0.4 32.8 54 -7.9 17.8
02:00 1006 29.71 836 24.69 0.3 32.6 53 -8.1 17.4
02:05 1006 29.71 836 24.69 0.6 33 52 -8.1 17.4
02:10 1007 29.74 836 24.69 0.6 33.1 52 -8.1 17.3
02:15 1007 29.74 836 24.69 0.6 33.2 52 -8.2 17.3
02:20 1006 29.71 836 24.69 0.7 33.3 52 -8.2 17.3
02:25 1007 29.74 836 24.69 0.8 33.4 52 -8.1 17.4
02:30 1007 29.74 836 24.69 0.9 33.6 51 -8.2 17.2
02:35 1007 29.74 836 24.69 1 33.8 50 -8.4 17
02:40 1007 29.74 836 24.69 1 33.8 51 -8.1 17.5
02:45 1007 29.74 836 24.69 1 33.7 51 -8.1 17.5
02:50 1007 29.74 836 24.69 0.9 33.7 52 -8 17.7
02:55 1007 29.74 836 24.69 1.1 34 50 -8.1 17.4
03:00 1007 29.74 836 24.69 1.9 35.3 49 -7.7 18.2
03:05 1007 29.74 836 24.69 2.5 36.6 48 -7.4 18.7
03:10 1007 29.74 836 24.69 1.8 35.3 49 -7.9 17.8
03:15 1007 29.74 836 24.69 1.9 35.4 49 -7.8 18
03:20 1007 29.74 836 24.69 2 35.6 48 -7.9 17.8
03:25 1006 29.71 836 24.69 1.6 34.9 49 -8 17.7
03:30 1006 29.71 836 24.69 1.4 34.5 49 -8.1 17.4
03:35 1006 29.71 836 24.69 1.6 34.9 49 -7.9 17.8
03:40 1006 29.71 835 24.66 1.6 34.9 48 -8.1 17.3
03:45 1006 29.71 835 24.66 1.5 34.8 49 -8 17.6
03:50 1006 29.71 835 24.66 1.5 34.7 50 -7.9 17.8
03:55 1006 29.71 835 24.66 1.4 34.4 52 -7.5 18.4
04:00 1006 29.71 835 24.66 1.2 34.1 52 -7.6 18.4
04:05 1006 29.71 835 24.66 1.1 33.9 53 -7.5 18.5
04:10 1006 29.71 835 24.66 1.1 34 53 -7.4 18.6
04:15 1006 29.71 835 24.66 1.2 34.1 54 -7.2 19
04:20 1006 29.71 835 24.66 1.2 34.1 54 -7.1 19.2
04:25 1006 29.71 835 24.66 1.2 34.1 54 -7.2 19.1
04:30 1006 29.71 835 24.66 1.3 34.4 54 -7.1 19.3
04:35 1006 29.71 835 24.66 1.4 34.5 53 -7.2 19.1
04:40 1006 29.71 835 24.66 1.6 34.9 51 -7.4 18.7
04:45 1006 29.71 835 24.66 1.6 34.9 52 -7.1 19.2
04:50 1006 29.71 835 24.66 1.3 34.3 55 -6.8 19.7
04:55 1006 29.71 835 24.66 1.3 34.3 52 -7.6 18.4
05:00 1006 29.71 835 24.66 1.5 34.8 52 -7.3 18.9
05:05 1006 29.71 836 24.69 1.9 35.4 49 -7.7 18.1
05:10 1006 29.71 836 24.69 2.2 36 49 -7.5 18.4
05:15 1006 29.71 835 24.66 2.1 35.8 50 -7.3 18.8
05:20 1006 29.71 835 24.66 1.9 35.5 50 -7.4 18.7
05:25 1006 29.71 835 24.66 2.1 35.8 49 -7.4 18.7
05:30 1006 29.71 835 24.66 2.6 36.7 50 -6.9 19.6
05:35 1006 29.71 835 24.66 2.2 35.9 51 -6.9 19.6
05:40 1006 29.71 835 24.66 2 35.6 53 -6.5 20.3
05:45 1006 29.71 835 24.66 1.8 35.2 53 -6.9 19.6
05:50 1006 29.71 835 24.66 1.7 35 55 -6.5 20.3
05:55 1006 29.71 835 24.66 1.5 34.8 53 -7 19.5
06:00 1006 29.71 835 24.66 1.9 35.4 53 -6.7 19.9
06:05 1006 29.71 835 24.66 1.7 35.1 53 -6.8 19.8
06:10 1006 29.71 835 24.66 1.8 35.3 53 -6.8 19.8
06:15 1006 29.71 835 24.66 2.1 35.7 53 -6.6 20.1
06:20 1006 29.71 835 24.66 2 35.6 52 -6.7 19.9
06:25 1006 29.71 835 24.66 1.9 35.3 53 -6.8 19.8
06:30 1006 29.71 835 24.66 1.7 35.1 55 -6.4 20.5
06:35 1005 29.68 835 24.66 1.6 34.9 56 -6.2 20.8
06:40 1006 29.71 835 24.66 1.5 34.7 57 -6.1 20.9
06:45 1006 29.71 835 24.66 1.5 34.6 58 -5.9 21.4
06:50 1006 29.71 835 24.66 1.5 34.7 58 -5.9 21.4
06:55 1006 29.71 835 24.66 1.5 34.7 58 -5.9 21.4
07:00 1006 29.71 835 24.66 1.6 34.8 58 -5.9 21.5
07:05 1006 29.71 835 24.66 1.6 34.9 58 -5.8 21.5
07:10 1006 29.71 835 24.66 1.7 35 59 -5.6 22
07:15 1006 29.71 835 24.66 1.6 34.8 59 -5.6 22
07:20 1006 29.71 835 24.66 1.6 34.9 60 -5.4 22.2
07:25 1006 29.71 835 24.66 1.7 35 59 -5.5 22.1
07:30 1006 29.71 835 24.66 1.7 35.1 59 -5.4 22.3
07:35 1006 29.71 835 24.66 1.7 35 59 -5.4 22.2
07:40 1006 29.71 835 24.66 1.6 34.9 59 -5.5 22.2
07:45 1006 29.71 835 24.66 1.7 35.1 59 -5.4 22.3
07:50 1006 29.71 835 24.66 1.7 35 60 -5.3 22.4
07:55 1006 29.71 835 24.66 1.7 35 59 -5.5 22.2
08:00 1006 29.71 835 24.66 1.8 35.2 60 -5.3 22.5
08:05 1006 29.71 835 24.66 1.7 35 60 -5.3 22.4
08:10 1006 29.71 835 24.66 1.6 34.9 59 -5.5 22.2
08:15 1006 29.71 835 24.66 1.7 35 59 -5.4 22.3
08:20 1006 29.71 835 24.66 1.7 35 59 -5.4 22.3
08:25 1006 29.71 835 24.66 1.8 35.2 59 -5.5 22.1
08:30 1006 29.71 835 24.66 1.7 35.1 58 -5.6 22
08:35 1006 29.71 835 24.66 1.8 35.2 58 -5.7 21.7
08:40 1006 29.71 835 24.66 2.1 35.8 57 -5.5 22.2
08:45 1006 29.71 836 24.69 2.3 36.2 55 -5.7 21.7
08:50 1006 29.71 836 24.69 2.6 36.7 56 -5.4 22.3
08:55 1006 29.71 836 24.69 2.4 36.3 57 -5.3 22.5
09:00 1007 29.74 836 24.69 2.5 36.4 55 -5.6 21.9
09:05 1007 29.74 836 24.69 2.7 36.8 55 -5.5 22.2
09:10 1007 29.74 836 24.69 2.6 36.7 56 -5.3 22.5
09:15 1007 29.74 836 24.69 2.2 35.9 59 -4.9 23.1
09:20 1007 29.74 836 24.69 2 35.6 59 -5.3 22.5
09:25 1007 29.74 836 24.69 2.1 35.8 59 -5.1 22.9
09:30 1007 29.74 836 24.69 2.1 35.8 59 -5.1 22.9
09:35 1007 29.74 836 24.69 2.1 35.8 59 -5 23
09:40 1007 29.74 836 24.69 2.1 35.8 60 -5 23.1
09:45 1007 29.74 836 24.69 2.1 35.8 60 -4.9 23.2
09:50 1007 29.74 836 24.69 2.1 35.8 60 -4.8 23.3
09:55 1007 29.74 836 24.69 2.2 36 59 -4.9 23.1
10:00 1007 29.74 836 24.69 2.4 36.4 58 -4.9 23.2
10:05 1007 29.74 836 24.69 2.7 36.8 57 -5 23.1
10:10 1007 29.74 836 24.69 2.9 37.2 58 -4.6 23.8
10:15 1007 29.74 836 24.69 3 37.5 57 -4.7 23.6
10:20 1007 29.74 836 24.69 3.2 37.7 57 -4.6 23.7
10:25 1007 29.74 836 24.69 3.2 37.8 57 -4.5 23.8
10:30 1007 29.74 836 24.69 3.3 38 57 -4.5 24
10:35 1007 29.74 836 24.69 3.5 38.4 54 -5 23
10:40 1007 29.74 836 24.69 3.9 39 52 -5 23
10:45 1007 29.74 836 24.69 4 39.2 53 -4.7 23.5
10:50 1007 29.74 836 24.69 4.1 39.4 52 -4.8 23.3
10:55 1007 29.74 836 24.69 4.3 39.7 51 -5 23.1
11:00 1007 29.74 836 24.69 4.5 40.2 51 -4.8 23.3
11:05 1007 29.74 836 24.69 4.8 40.6 50 -4.8 23.4
11:10 1007 29.74 836 24.69 4.8 40.7 50 -4.6 23.7
11:15 1007 29.74 836 24.69 5 40.9 50 -4.7 23.5
11:20 1007 29.74 836 24.69 5 41 50 -4.6 23.7
11:25 1007 29.74 836 24.69 5.1 41.1 50 -4.6 23.8
11:30 1007 29.74 836 24.69 5.2 41.3 50 -4.5 23.9
11:35 1007 29.74 836 24.69 5.2 41.4 49 -4.5 23.9
11:40 1007 29.74 836 24.69 5.3 41.5 49 -4.5 23.9
11:45 1007 29.74 836 24.69 5.3 41.6 49 -4.5 23.9
11:50 1007 29.74 836 24.69 5.5 41.9 49 -4.4 24.1
11:55 1007 29.74 836 24.69 5.5 41.9 48 -4.8 23.4
12:00 1007 29.74 836 24.69 5.7 42.3 47 -4.8 23.3
12:05 1007 29.74 836 24.69 5.8 42.5 47 -4.5 23.9
12:10 1007 29.74 836 24.69 5.9 42.7 48 -4.2 24.5
12:15 1007 29.74 836 24.69 5.9 42.7 49 -4 24.8
12:20 1007 29.74 836 24.69 6.2 43.2 49 -3.6 25.5
12:25 1007 29.74 836 24.69 5.6 42.1 50 -3.9 25
12:30 1007 29.74 836 24.69 6 42.8 49 -3.9 24.9
12:35 1007 29.74 836 24.69 5.5 41.9 54 -3 26.6
12:40 1007 29.74 836 24.69 5.6 42.1 50 -3.9 25
12:45 1007 29.74 836 24.69 6.5 43.7 48 -3.6 25.5
12:50 1007 29.74 836 24.69 7.1 44.7 46 -3.7 25.4
12:55 1007 29.74 836 24.69 7.4 45.4 46 -3.5 25.7
13:00 1007 29.74 836 24.69 7.5 45.5 44 -4.1 24.6
13:05 1007 29.74 836 24.69 7 44.6 48 -3.2 26.3
13:10 1007 29.74 836 24.69 6.2 43.1 52 -2.8 26.9
13:15 1007 29.74 836 24.69 4.8 40.7 55 -3.4 26
13:20 1007 29.74 836 24.69 5.2 41.3 50 -4.3 24.2
13:25 1007 29.74 836 24.69 5.7 42.2 50 -4 24.8
13:30 1007 29.74 836 24.69 5.6 42.2 51 -3.7 25.3
13:35 1007 29.74 836 24.69 6.1 42.9 50 -3.6 25.5
13:40 1007 29.74 836 24.69 6 42.8 49 -4 24.8
13:45 1007 29.74 836 24.69 6.3 43.3 48 -4 24.7
13:50 1006 29.71 836 24.69 6.9 44.4 46 -3.9 25
13:55 1006 29.71 836 24.69 7.5 45.5 45 -3.5 25.6
14:00 1006 29.71 836 24.69 7.7 45.8 43 -4.1 24.7
14:05 1006 29.71 836 24.69 7.7 45.8 44 -3.8 25.2
14:10 1006 29.71 836 24.69 7 44.7 43 -4.6 23.7
14:15 1006 29.71 836 24.69 6.6 43.8 46 -4.1 24.6
14:20 1006 29.71 835 24.66 6.7 44 46 -4.1 24.7
14:25 1006 29.71 836 24.69 6.4 43.4 48 -3.9 24.9
14:30 1006 29.71 836 24.69 5.8 42.5 50 -3.8 25.1
14:35 1006 29.71 836 24.69 5.6 42 50 -4 24.9
14:40 1006 29.71 836 24.69 5.4 41.7 51 -3.9 24.9
14:45 1006 29.71 835 24.66 5.4 41.7 50 -4.1 24.6
14:50 1006 29.71 835 24.66 5.3 41.6 51 -4.1 24.7
14:55 1006 29.71 836 24.69 5.3 41.5 51 -4.1 24.5
15:00 1006 29.71 836 24.69 5.2 41.4 50 -4.3 24.3
15:05 1006 29.71 836 24.69 5.2 41.4 50 -4.3 24.2
15:10 1006 29.71 836 24.69 5.4 41.7 47 -5 23.1
15:15 1006 29.71 836 24.69 5.6 42.1 48 -4.5 23.9
15:20 1007 29.74 836 24.69 5.7 42.3 48 -4.4 24.1
15:25 1007 29.74 836 24.69 5.8 42.4 48 -4.3 24.3
15:30 1007 29.74 836 24.69 5.7 42.3 49 -4.1 24.7
15:35 1007 29.74 836 24.69 5.7 42.2 49 -4.2 24.4
15:40 1007 29.74 836 24.69 5.6 42.1 49 -4.3 24.3
15:45 1007 29.74 836 24.69 5.6 42.2 49 -4.3 24.3
15:50 1007 29.74 836 24.69 5.5 41.9 50 -4.1 24.6
15:55 1007 29.74 836 24.69 5.4 41.6 51 -4 24.9
16:00 1007 29.74 836 24.69 5.2 41.3 53 -3.7 25.3
16:05 1007 29.74 836 24.69 4.9 40.8 54 -3.7 25.3
16:10 1007 29.74 836 24.69 4.6 40.3 53 -4.1 24.7
16:15 1007 29.74 836 24.69 4.7 40.5 53 -4 24.8
16:20 1007 29.74 836 24.69 4.7 40.4 55 -3.6 25.5
16:25 1007 29.74 836 24.69 4 39.1 55 -4.2 24.4
16:30 1007 29.74 836 24.69 4.1 39.5 55 -4 24.7
16:35 1007 29.74 836 24.69 4.2 39.6 54 -4.2 24.5
16:40 1007 29.74 836 24.69 4.2 39.5 54 -4.4 24.1
16:45 1007 29.74 836 24.69 4.3 39.7 56 -3.8 25.1
16:50 1007 29.74 836 24.69 3.9 39.1 57 -3.9 25
16:55 1007 29.74 836 24.69 3.8 38.8 56 -4.2 24.4
17:00 1007 29.74 836 24.69 4.3 39.8 53 -4.4 24.2
17:05 1007 29.74 836 24.69 4.1 39.5 57 -3.7 25.3
17:10 1007 29.74 836 24.69 3.5 38.2 59 -3.7 25.3
17:15 1007 29.74 836 24.69 3.4 38.2 60 -3.6 25.5
17:20 1007 29.74 836 24.69 3.3 37.9 59 -3.9 25
17:25 1007 29.74 836 24.69 2.9 37.3 62 -3.5 25.7
17:30 1007 29.74 836 24.69 2.2 36 66 -3.4 25.8
17:35 1007 29.74 836 24.69 2.4 36.4 64 -3.8 25.2
17:40 1007 29.74 836 24.69 3.1 37.7 62 -3.5 25.7
17:45 1007 29.74 836 24.69 2.8 37.1 65 -3.1 26.4
17:50 1007 29.74 836 24.69 2.4 36.3 64 -3.8 25.2
17:55 1006 29.71 836 24.69 2.7 36.8 62 -3.9 25
18:00 1006 29.71 836 24.69 2.7 36.8 62 -3.8 25.1
18:05 1006 29.71 836 24.69 2.5 36.6 63 -3.9 25.1
18:10 1006 29.71 836 24.69 2.5 36.4 63 -3.9 25
18:15 1006 29.71 836 24.69 2.4 36.3 63 -3.9 25
18:20 1006 29.71 836 24.69 2.3 36.2 63 -4.1 24.7
18:25 1006 29.71 836 24.69 2.4 36.4 62 -4 24.7
18:30 1006 29.71 836 24.69 2.2 36 64 -4 24.9
18:35 1006 29.71 836 24.69 2.2 35.9 63 -4.2 24.4
18:40 1007 29.74 836 24.69 2.2 36 63 -4.1 24.5
18:45 1006 29.71 836 24.69 2 35.7 64 -4.1 24.6
18:50 1006 29.71 836 24.69 1.8 35.3 65 -4.1 24.6
18:55 1006 29.71 836 24.69 2.1 35.8 61 -4.6 23.7
19:00 1006 29.71 836 24.69 2.3 36.2 61 -4.5 23.9
19:05 1006 29.71 836 24.69 2.3 36.2 62 -4.3 24.3
19:10 1006 29.71 836 24.69 2 35.6 63 -4.3 24.3
19:15 1006 29.71 836 24.69 1.9 35.5 62 -4.6 23.6
19:20 1006 29.71 836 24.69 2.1 35.8 61 -4.7 23.6
19:25 1006 29.71 836 24.69 2 35.6 61 -4.6 23.6
19:30 1006 29.71 836 24.69 1.9 35.5 61 -4.7 23.5
19:35 1006 29.71 836 24.69 2.1 35.7 60 -4.8 23.3
19:40 1006 29.71 835 24.66 2.2 36 61 -4.6 23.8
19:45 1006 29.71 835 24.66 2.1 35.7 62 -4.5 23.9
19:50 1006 29.71 835 24.66 2 35.6 62 -4.6 23.7
19:55 1006 29.71 835 24.66 1.9 35.4 62 -4.7 23.6
20:00 1006 29.71 835 24.66 1.8 35.2 63 -4.5 23.9
20:05 1006 29.71 835 24.66 1.7 35 62 -4.8 23.3
20:10 1006 29.71 835 24.66 1.7 35.1 62 -4.8 23.4
20:15 1006 29.71 835 24.66 1.7 35.1 62 -4.8 23.4
20:20 1006 29.71 835 24.66 1.7 35.1 63 -4.6 23.7
20:25 1006 29.71 835 24.66 1.9 35.4 61 -4.9 23.3
20:30 1006 29.71 835 24.66 2.1 35.8 60 -4.9 23.2
20:35 1006 29.71 835 24.66 2.2 35.9 60 -4.8 23.4
20:40 1006 29.71 835 24.66 2.2 35.9 60 -4.9 23.2
20:45 1006 29.71 835 24.66 2.2 36 59 -4.9 23.1
20:50 1006 29.71 835 24.66 2.2 36 60 -4.8 23.4
20:55 1006 29.71 835 24.66 2.1 35.8 61 -4.7 23.6
21:00 1006 29.71 835 24.66 2 35.5 61 -4.8 23.4
21:05 1006 29.71 835 24.66 1.9 35.5 61 -4.7 23.5
21:10 1006 29.71 835 24.66 1.9 35.4 61 -4.8 23.3
21:15 1006 29.71 835 24.66 1.9 35.4 62 -4.7 23.6
21:20 1006 29.71 835 24.66 2 35.6 60 -4.9 23.2
21:25 1006 29.71 835 24.66 2.2 35.9 59 -5.1 22.9
21:30 1006 29.71 835 24.66 2.3 36.2 58 -5 23
21:35 1006 29.71 835 24.66 2.4 36.3 58 -5 23
21:40 1006 29.71 835 24.66 2.4 36.3 59 -4.8 23.4
21:45 1006 29.71 835 24.66 2.4 36.2 59 -4.9 23.2
21:50 1006 29.71 835 24.66 2.4 36.2 58 -5 23
21:55 1006 29.71 835 24.66 2.5 36.5 58 -5 23.1
22:00 1006 29.71 835 24.66 2.5 36.5 59 -4.7 23.5
22:05 1006 29.71 835 24.66 2.3 36.2 60 -4.6 23.8
22:10 1006 29.71 835 24.66 2.2 36 60 -4.8 23.3
22:15 1006 29.71 835 24.66 2.4 36.3 58 -4.9 23.2
22:20 1006 29.71 835 24.66 2.5 36.5 58 -4.9 23.1
22:25 1006 29.71 835 24.66 2.5 36.5 59 -4.6 23.6
22:30 1006 29.71 835 24.66 2.3 36.2 62 -4.2 24.5
22:35 1006 29.71 835 24.66 1.7 35.1 64 -4.4 24.1
22:40 1006 29.71 835 24.66 1.8 35.2 69 -3.4 25.9
22:45 1006 29.71 835 24.66 1.9 35.4 76 -1.9 28.5
22:50 1006 29.71 835 24.66 2 35.6 81 -0.9 30.4
22:55 1006 29.71 835 24.66 1.9 35.4 86 -0.3 31.5
23:00 1006 29.71 835 24.66 1.7 35.1 89 0.1 32.1
23:05 1006 29.71 835 24.66 1.6 34.9 90 0.2 32.3
23:10 1006 29.71 835 24.66 1.5 34.7 92 0.3 32.5
23:15 1006 29.71 835 24.66 1.4 34.5 92 0.3 32.5
23:20 1006 29.71 835 24.66 1.4 34.5 92 0.3 32.5
23:25 1006 29.71 835 24.66 1.4 34.5 92 0.3 32.5
23:30 1006 29.71 835 24.66 1.3 34.4 93 0.3 32.6
23:35 1006 29.71 835 24.66 1.2 34.1 94 0.3 32.5
23:40 1006 29.71 835 24.66 1.1 34.1 95 0.4 32.7
23:45 1006 29.71 835 24.66 1.1 34 95 0.3 32.6
23:50 1006 29.71 835 24.66 1 33.8 95 0.3 32.5
23:55 1006 29.71 835 24.66 1 33.8 95 0.3 32.5
24:00 1005 29.68 835 24.66 1 33.7 95 0.3 32.5